Página principal
METAR-TAF:

METAR-TAF

Aeroportos :

Minna, Nigéria

latitude: 9-37N, longitude: 6-32E, altura: 260 m

Observação actual do tempo

O boletim foi feito há 1 hora e 22 minutos, às 09:00 UTC
Vento 4 kt de sudoeste
Temperatura 32°C
Humidade 71%
Pressão 1014 hPa
Visibilidade 10 km ou mais
Nuvens fragmentadasa uma altura de 1200 ft

METAR: DNMN 210900Z 23004KT 9999 BKN012 32/26 Q1014

Hora: 11:22 (10:22 UTC)


TAF: em falta

Observações e previsões do tempo de mais de 4000 aeroportos (mensagens METAR e TAF).

As estações disponíveis são os pontos amarelos e vermelhos sobre o mapa.

Mova o rato sobre o mapa para ver o nome da estação.

Depois clique no ponto para visualizar as observações e previsões meteorológicas.

Para alterar o mapa : clique nos botões verdes com uma cruz preta para aumentar o zoom; no botão verde com uma pitada de zoom; ou nas setas verdes para mapas adjacentes.


METAR-TAF: